createdAt,value
2018-12-18T00:00:51.096Z,4.58
2018-12-18T00:01:51.075Z,4.59
2018-12-18T00:02:51.234Z,4.61
2018-12-18T00:03:51.118Z,4.65
2018-12-18T00:04:51.056Z,4.61
2018-12-18T00:05:51.149Z,4.57
2018-12-18T00:06:51.136Z,4.57
2018-12-18T00:07:51.138Z,4.59
2018-12-18T00:08:51.069Z,4.59
2018-12-18T00:09:51.133Z,4.6
2018-12-18T00:10:51.065Z,4.6
2018-12-18T00:11:51.286Z,4.58
2018-12-18T00:12:51.081Z,4.59
2018-12-18T00:13:51.138Z,4.59
2018-12-18T00:14:51.300Z,4.61
2018-12-18T00:15:51.515Z,4.59
2018-12-18T00:16:51.343Z,4.57
2018-12-18T00:17:51.483Z,4.59
2018-12-18T00:18:51.065Z,4.61
2018-12-18T00:19:51.356Z,4.56
2018-12-18T00:20:51.142Z,4.59
2018-12-18T00:21:51.212Z,4.58
2018-12-18T00:22:51.119Z,4.58
2018-12-18T00:23:51.278Z,4.57
2018-12-18T00:24:51.436Z,4.58
2018-12-18T00:25:51.040Z,4.57
2018-12-18T00:26:51.204Z,4.54
2018-12-18T00:27:51.192Z,4.57
2018-12-18T00:28:51.045Z,4.52
2018-12-18T00:29:51.410Z,4.54
2018-12-18T00:30:51.189Z,4.57
2018-12-18T00:31:51.237Z,4.53
2018-12-18T00:32:51.012Z,4.53
2018-12-18T00:33:51.127Z,4.54
2018-12-18T00:34:51.220Z,4.51
2018-12-18T00:35:51.111Z,4.53
2018-12-18T00:36:51.852Z,4.57
2018-12-18T00:37:51.320Z,4.61
2018-12-18T00:38:51.151Z,4.65
2018-12-18T00:39:51.834Z,4.65
2018-12-18T00:40:51.375Z,4.63
2018-12-18T00:41:51.159Z,4.61
2018-12-18T00:42:51.238Z,4.6
2018-12-18T00:43:51.354Z,4.61
2018-12-18T00:44:51.375Z,4.57
2018-12-18T00:45:51.367Z,4.57
2018-12-18T00:46:51.272Z,4.54
2018-12-18T00:47:51.450Z,4.53
2018-12-18T00:48:51.140Z,4.53
2018-12-18T00:49:51.099Z,4.55
2018-12-18T00:50:51.181Z,4.54
2018-12-18T00:51:51.194Z,4.56
2018-12-18T00:52:51.323Z,4.55
2018-12-18T00:53:51.068Z,4.53
2018-12-18T00:54:51.044Z,4.52
2018-12-18T00:55:50.961Z,4.47
2018-12-18T00:56:51.041Z,4.47
2018-12-18T00:57:51.198Z,4.48
2018-12-18T00:58:51.047Z,4.44
2018-12-18T00:59:51.253Z,4.45
2018-12-18T01:00:50.966Z,4.43
2018-12-18T01:01:51.125Z,4.43
2018-12-18T01:02:51.029Z,4.43
2018-12-18T01:03:53.240Z,4.42
2018-12-18T01:04:51.067Z,4.41
2018-12-18T01:05:51.133Z,4.42
2018-12-18T01:06:51.369Z,4.45
2018-12-18T01:07:53.765Z,4.47
2018-12-18T01:08:51.062Z,4.42
2018-12-18T01:09:51.152Z,4.43
2018-12-18T01:10:51.081Z,4.39
2018-12-18T01:11:51.101Z,4.41
2018-12-18T01:12:51.715Z,4.44
2018-12-18T01:13:51.124Z,4.45
2018-12-18T01:14:50.952Z,4.42
2018-12-18T01:15:51.091Z,4.44
2018-12-18T01:16:51.171Z,4.38
2018-12-18T01:17:51.843Z,4.38
2018-12-18T01:18:51.504Z,4.4
2018-12-18T01:19:51.052Z,4.39
2018-12-18T01:20:51.090Z,4.39
2018-12-18T01:21:51.053Z,4.36
2018-12-18T01:22:51.023Z,4.36
2018-12-18T01:23:50.965Z,4.31
2018-12-18T01:24:51.138Z,4.31
2018-12-18T01:25:51.026Z,4.32
2018-12-18T01:26:51.006Z,4.3
2018-12-18T01:27:51.039Z,4.29
2018-12-18T01:28:51.065Z,4.28
2018-12-18T01:29:51.037Z,4.29
2018-12-18T01:30:51.021Z,4.27
2018-12-18T01:31:51.036Z,4.27
2018-12-18T01:32:51.095Z,4.26
2018-12-18T01:33:51.065Z,4.24
2018-12-18T01:34:51.015Z,4.23
2018-12-18T01:35:50.895Z,4.2
2018-12-18T01:36:51.045Z,4.18
2018-12-18T01:37:51.092Z,4.18
2018-12-18T01:38:51.064Z,4.19
2018-12-18T01:39:51.031Z,4.16
2018-12-18T01:40:51.040Z,4.18
2018-12-18T01:41:50.890Z,4.18
2018-12-18T01:42:50.949Z,4.14
2018-12-18T01:43:51.097Z,4.11
2018-12-18T01:44:50.923Z,4.08
2018-12-18T01:45:51.032Z,4.09
2018-12-18T01:46:50.996Z,4.06
2018-12-18T01:47:50.933Z,4.06
2018-12-18T01:48:51.198Z,4.07
2018-12-18T01:49:51.030Z,4.02
2018-12-18T01:50:51.152Z,4.02
2018-12-18T01:51:51.100Z,4.01
2018-12-18T01:52:50.971Z,3.99
2018-12-18T01:53:51.045Z,3.9
2018-12-18T01:54:51.148Z,3.82
2018-12-18T01:55:51.231Z,3.76
2018-12-18T01:56:50.879Z,3.72
2018-12-18T01:57:51.041Z,3.71
2018-12-18T01:58:50.895Z,3.69
2018-12-18T01:59:50.971Z,3.68
2018-12-18T02:00:51.093Z,3.68
2018-12-18T02:01:50.881Z,3.68
2018-12-18T02:02:51.744Z,3.68
2018-12-18T02:03:50.932Z,3.69
2018-12-18T02:04:51.152Z,3.66
2018-12-18T02:05:51.154Z,3.65
2018-12-18T02:06:50.849Z,3.69
2018-12-18T02:07:51.264Z,3.7
2018-12-18T02:08:50.962Z,3.7
2018-12-18T02:09:51.137Z,3.66
2018-12-18T02:10:51.077Z,3.65
2018-12-18T02:11:51.161Z,3.63
2018-12-18T02:12:50.907Z,3.65
2018-12-18T02:13:50.933Z,3.61
2018-12-18T02:14:50.875Z,3.62
2018-12-18T02:15:50.840Z,3.6
2018-12-18T02:16:51.094Z,3.59
2018-12-18T02:17:51.112Z,3.6
2018-12-18T02:18:51.158Z,3.58
2018-12-18T02:19:51.266Z,3.51
2018-12-18T02:20:51.112Z,3.49
2018-12-18T02:21:51.051Z,3.43
2018-12-18T02:22:51.140Z,3.38
2018-12-18T02:23:50.852Z,3.35
2018-12-18T02:24:51.329Z,3.36
2018-12-18T02:25:50.997Z,3.36
2018-12-18T02:26:50.872Z,3.37
2018-12-18T02:27:51.116Z,3.34
2018-12-18T02:28:51.040Z,3.33
2018-12-18T02:29:51.202Z,3.33
2018-12-18T02:30:51.019Z,3.31
2018-12-18T02:31:51.206Z,3.29
2018-12-18T02:32:50.890Z,3.27
2018-12-18T02:33:50.970Z,3.19
2018-12-18T02:34:50.944Z,3.1
2018-12-18T02:35:50.897Z,3.07
2018-12-18T02:36:51.078Z,3.04
2018-12-18T02:37:51.032Z,2.99
2018-12-18T02:38:51.070Z,3.02
2018-12-18T02:39:51.347Z,3.05
2018-12-18T02:40:50.868Z,3.1
2018-12-18T02:41:51.158Z,3.08
2018-12-18T02:42:51.177Z,3.1
2018-12-18T02:43:51.298Z,3.1
2018-12-18T02:44:50.850Z,3.1
2018-12-18T02:45:51.660Z,3.12
2018-12-18T02:46:50.946Z,3.07
2018-12-18T02:47:51.654Z,3.07
2018-12-18T02:48:51.045Z,3.06
2018-12-18T02:49:50.961Z,3.07
2018-12-18T02:50:51.139Z,3.08
2018-12-18T02:51:50.840Z,3.04
2018-12-18T02:52:51.013Z,3.02
2018-12-18T02:53:51.158Z,2.99
2018-12-18T02:54:50.799Z,3.03
2018-12-18T02:55:51.115Z,2.98
2018-12-18T02:56:50.818Z,2.98
2018-12-18T02:57:50.920Z,2.98
2018-12-18T02:58:50.830Z,2.99
2018-12-18T02:59:50.907Z,2.9
2018-12-18T03:00:50.836Z,2.95
2018-12-18T03:01:51.169Z,2.96
2018-12-18T03:02:50.844Z,3
2018-12-18T03:03:50.832Z,3
2018-12-18T03:04:51.010Z,2.95
2018-12-18T03:05:50.863Z,2.83
2018-12-18T03:06:50.822Z,2.85
2018-12-18T03:07:50.810Z,2.88
2018-12-18T03:08:50.840Z,2.85
2018-12-18T03:09:50.858Z,2.9
2018-12-18T03:10:50.846Z,2.87
2018-12-18T03:11:50.838Z,2.82
2018-12-18T03:12:50.968Z,2.79
2018-12-18T03:13:50.831Z,2.8
2018-12-18T03:14:50.825Z,2.83
2018-12-18T03:15:50.798Z,2.77
2018-12-18T03:16:50.929Z,2.78
2018-12-18T03:17:50.894Z,2.76
2018-12-18T03:18:50.849Z,2.72
2018-12-18T03:19:50.827Z,2.71
2018-12-18T03:20:50.819Z,2.69
2018-12-18T03:21:50.892Z,2.69
2018-12-18T03:22:50.833Z,2.71
2018-12-18T03:23:50.903Z,2.7
2018-12-18T03:24:50.809Z,2.69
2018-12-18T03:25:50.832Z,2.7
2018-12-18T03:26:51.177Z,2.7
2018-12-18T03:27:50.963Z,2.7
2018-12-18T03:28:51.132Z,2.7
2018-12-18T03:29:51.638Z,2.7
2018-12-18T03:30:51.025Z,2.73
2018-12-18T03:31:51.312Z,2.74
2018-12-18T03:32:50.843Z,2.77
2018-12-18T03:33:51.098Z,2.73
2018-12-18T03:34:50.914Z,2.77
2018-12-18T03:35:50.914Z,2.79
2018-12-18T03:36:51.100Z,2.78
2018-12-18T03:37:50.810Z,2.77
2018-12-18T03:38:51.109Z,2.8
2018-12-18T03:39:50.849Z,2.79
2018-12-18T03:40:50.785Z,2.8
2018-12-18T03:41:51.152Z,2.8
2018-12-18T03:42:51.056Z,2.79
2018-12-18T03:43:51.063Z,2.82
2018-12-18T03:44:50.960Z,2.83
2018-12-18T03:45:50.991Z,2.81
2018-12-18T03:46:51.011Z,2.81
2018-12-18T03:47:50.819Z,2.85
2018-12-18T03:48:50.745Z,2.88
2018-12-18T03:49:50.891Z,2.9
2018-12-18T03:50:51.127Z,2.87
2018-12-18T03:51:50.734Z,2.9
2018-12-18T03:52:50.978Z,2.88
2018-12-18T03:53:51.021Z,2.9
2018-12-18T03:54:50.768Z,2.88
2018-12-18T03:55:50.847Z,2.88
2018-12-18T03:56:50.946Z,2.9
2018-12-18T03:57:50.884Z,2.89
2018-12-18T03:58:51.003Z,2.86
2018-12-18T03:59:51.051Z,2.86
2018-12-18T04:00:51.567Z,2.84
2018-12-18T04:01:50.785Z,2.81
2018-12-18T04:02:50.981Z,2.78
2018-12-18T04:03:50.988Z,2.78
2018-12-18T04:04:50.910Z,2.76
2018-12-18T04:05:51.085Z,2.71
2018-12-18T04:06:51.067Z,2.71
2018-12-18T04:07:50.734Z,2.7
2018-12-18T04:08:50.720Z,2.7
2018-12-18T04:09:51.138Z,2.68
2018-12-18T04:10:51.096Z,2.66
2018-12-18T04:11:50.857Z,2.67
2018-12-18T04:12:50.815Z,2.66
2018-12-18T04:13:50.804Z,2.61
2018-12-18T04:14:50.797Z,2.61
2018-12-18T04:15:50.762Z,2.61
2018-12-18T04:16:50.747Z,2.6
2018-12-18T04:17:50.729Z,2.6
2018-12-18T04:18:50.705Z,2.56
2018-12-18T04:19:50.736Z,2.53
2018-12-18T04:20:51.044Z,2.52
2018-12-18T04:21:51.091Z,2.51
2018-12-18T04:22:50.905Z,2.48
2018-12-18T04:23:50.920Z,2.46
2018-12-18T04:24:50.724Z,2.42
2018-12-18T04:25:50.702Z,2.42
2018-12-18T04:26:50.800Z,2.43
2018-12-18T04:27:50.912Z,2.41
2018-12-18T04:28:50.942Z,2.41
2018-12-18T04:29:50.760Z,2.38
2018-12-18T04:30:50.741Z,2.34
2018-12-18T04:31:50.818Z,2.36
2018-12-18T04:32:50.705Z,2.35
2018-12-18T04:33:51.070Z,2.32
2018-12-18T04:34:50.860Z,2.31
2018-12-18T04:35:50.688Z,2.3
2018-12-18T04:36:51.145Z,2.31
2018-12-18T04:37:50.743Z,2.29
2018-12-18T04:38:50.885Z,2.27
2018-12-18T04:39:50.689Z,2.24
2018-12-18T04:40:50.929Z,2.2
2018-12-18T04:41:50.681Z,2.21
2018-12-18T04:42:50.752Z,2.19
2018-12-18T04:43:50.735Z,2.2
2018-12-18T04:44:50.706Z,2.2
2018-12-18T04:45:50.736Z,2.18
2018-12-18T04:46:50.691Z,2.18
2018-12-18T04:47:50.665Z,2.18
2018-12-18T04:48:50.840Z,2.18
2018-12-18T04:49:50.708Z,2.16
2018-12-18T04:50:50.812Z,2.14
2018-12-18T04:51:50.779Z,2.12
2018-12-18T04:52:50.779Z,2.1
2018-12-18T04:53:50.822Z,2.1
2018-12-18T04:54:50.662Z,2.07
2018-12-18T04:55:50.801Z,2.04
2018-12-18T04:56:50.853Z,2.05
2018-12-18T04:57:50.768Z,2.05
2018-12-18T04:58:50.804Z,2.02
2018-12-18T04:59:50.728Z,2
2018-12-18T05:00:50.653Z,2.01
2018-12-18T05:01:51.017Z,2
2018-12-18T05:02:50.766Z,1.98
2018-12-18T05:03:50.789Z,1.98
2018-12-18T05:04:50.974Z,1.99
2018-12-18T05:05:50.922Z,1.94
2018-12-18T05:06:50.800Z,1.93
2018-12-18T05:07:50.920Z,1.92
2018-12-18T05:08:50.797Z,1.86
2018-12-18T05:09:50.650Z,1.8
2018-12-18T05:10:50.669Z,1.79
2018-12-18T05:11:50.863Z,1.65
2018-12-18T05:12:51.083Z,1.57
2018-12-18T05:13:50.764Z,1.57
2018-12-18T05:14:50.872Z,1.65
2018-12-18T05:15:50.618Z,1.7
2018-12-18T05:16:50.865Z,1.72
2018-12-18T05:17:50.652Z,1.72
2018-12-18T05:18:50.645Z,1.73
2018-12-18T05:19:51.010Z,1.71
2018-12-18T05:20:50.835Z,1.71
2018-12-18T05:21:51.442Z,1.74
2018-12-18T05:22:50.762Z,1.72
2018-12-18T05:23:50.743Z,1.68
2018-12-18T05:24:50.806Z,1.64
2018-12-18T05:25:51.050Z,1.56
2018-12-18T05:26:50.603Z,1.54
2018-12-18T05:27:50.626Z,1.55
2018-12-18T05:28:50.874Z,1.54
2018-12-18T05:29:50.738Z,1.53
2018-12-18T05:30:50.413Z,1.57
2018-12-18T05:31:50.762Z,1.57
2018-12-18T05:32:50.723Z,1.55
2018-12-18T05:33:50.781Z,1.51
2018-12-18T05:35:28.286Z,1.5
2018-12-18T05:35:50.609Z,1.47
2018-12-18T05:36:51.466Z,1.4
2018-12-18T05:37:50.778Z,1.43
2018-12-18T05:38:50.901Z,1.46
2018-12-18T05:39:50.982Z,1.46
2018-12-18T05:40:51.045Z,1.47
2018-12-18T05:41:50.774Z,1.49
2018-12-18T05:42:50.801Z,1.49
2018-12-18T05:43:50.740Z,1.52
2018-12-18T05:44:50.712Z,1.49
2018-12-18T05:45:50.780Z,1.46
2018-12-18T05:46:50.623Z,1.43
2018-12-18T05:47:50.733Z,1.42
2018-12-18T05:48:51.427Z,1.42
2018-12-18T05:49:50.843Z,1.43
2018-12-18T05:50:50.705Z,1.44
2018-12-18T05:51:50.784Z,1.41
2018-12-18T05:52:50.705Z,1.45
2018-12-18T05:53:50.694Z,1.41
2018-12-18T05:54:50.660Z,1.44
2018-12-18T05:55:50.740Z,1.43
2018-12-18T05:56:50.646Z,1.45
2018-12-18T05:57:50.569Z,1.52
2018-12-18T05:58:51.395Z,1.56
2018-12-18T05:59:51.011Z,1.57
2018-12-18T06:00:50.590Z,1.62
2018-12-18T06:01:51.142Z,1.7
2018-12-18T06:02:50.628Z,1.74
2018-12-18T06:03:50.849Z,1.81
2018-12-18T06:04:50.620Z,1.77
2018-12-18T06:05:51.145Z,1.81
2018-12-18T06:06:50.778Z,1.83
2018-12-18T06:07:50.601Z,1.85
2018-12-18T06:08:50.575Z,1.89
2018-12-18T06:09:50.752Z,1.9
2018-12-18T06:10:50.708Z,1.87
2018-12-18T06:11:50.816Z,1.86
2018-12-18T06:12:50.947Z,1.78
2018-12-18T06:13:50.626Z,1.74
2018-12-18T06:14:50.670Z,1.77
2018-12-18T06:15:50.538Z,1.8
2018-12-18T06:16:50.740Z,1.8
2018-12-18T06:17:50.538Z,1.8
2018-12-18T06:18:50.530Z,1.8
2018-12-18T06:19:50.656Z,1.75
2018-12-18T06:20:50.902Z,1.73
2018-12-18T06:21:50.546Z,1.76
2018-12-18T06:22:50.524Z,1.7
2018-12-18T06:23:51.239Z,1.76
2018-12-18T06:24:50.513Z,1.79
2018-12-18T06:25:50.528Z,1.76
2018-12-18T06:26:50.499Z,1.76
2018-12-18T06:27:50.603Z,1.74
2018-12-18T06:28:50.616Z,1.69
2018-12-18T06:29:50.503Z,1.64
2018-12-18T06:30:50.646Z,1.65
2018-12-18T06:31:50.563Z,1.67
2018-12-18T06:32:50.737Z,1.64
2018-12-18T06:33:50.532Z,1.64
2018-12-18T06:34:50.550Z,1.65
2018-12-18T06:35:50.863Z,1.73
2018-12-18T06:36:50.785Z,1.78
2018-12-18T06:37:50.678Z,1.81
2018-12-18T06:38:50.798Z,1.84
2018-12-18T06:39:51.348Z,1.85
2018-12-18T06:40:50.667Z,1.84
2018-12-18T06:41:50.562Z,1.88
2018-12-18T06:42:50.512Z,1.9
2018-12-18T06:43:50.578Z,1.91
2018-12-18T06:44:50.517Z,1.96
2018-12-18T06:45:50.656Z,1.95
2018-12-18T06:46:50.622Z,1.98
2018-12-18T06:47:50.551Z,1.97
2018-12-18T06:48:50.870Z,1.95
2018-12-18T06:49:50.533Z,1.91
2018-12-18T06:50:50.642Z,1.87
2018-12-18T06:51:51.339Z,1.94
2018-12-18T06:52:50.582Z,1.96
2018-12-18T06:53:50.564Z,1.97
2018-12-18T06:54:50.941Z,1.99
2018-12-18T06:55:50.492Z,2.03
2018-12-18T06:56:50.622Z,2.03
2018-12-18T06:57:50.660Z,2.02
2018-12-18T06:58:50.493Z,2.01
2018-12-18T06:59:50.615Z,2.04
2018-12-18T07:00:50.771Z,2.05
2018-12-18T07:01:50.546Z,2.04
2018-12-18T07:02:50.859Z,2.06
2018-12-18T07:03:50.574Z,2.07
2018-12-18T07:04:50.720Z,2.09
2018-12-18T07:05:50.815Z,2.07
2018-12-18T07:06:50.827Z,2.09
2018-12-18T07:07:57.876Z,2.08
2018-12-18T07:08:50.476Z,2.08
2018-12-18T07:09:50.721Z,2.08
2018-12-18T07:10:51.231Z,2.09
2018-12-18T07:11:50.822Z,2.1
2018-12-18T07:12:50.489Z,2.11
2018-12-18T07:13:50.729Z,2.1
2018-12-18T07:14:50.589Z,2.06
2018-12-18T07:15:50.487Z,2.04
2018-12-18T07:16:50.750Z,2.01
2018-12-18T07:17:50.679Z,1.98
2018-12-18T07:18:50.734Z,1.97
2018-12-18T07:19:50.926Z,2.04
2018-12-18T07:20:50.509Z,2.03
2018-12-18T07:21:50.777Z,2.01
2018-12-18T07:22:50.493Z,2.06
2018-12-18T07:23:50.842Z,2.1
2018-12-18T07:24:50.450Z,2.16
2018-12-18T07:25:50.464Z,2.16
2018-12-18T07:26:50.689Z,2.09
2018-12-18T07:27:50.573Z,2.04
2018-12-18T07:28:50.616Z,1.99
2018-12-18T07:29:50.571Z,2.05
2018-12-18T07:30:50.500Z,2.09
2018-12-18T07:31:50.727Z,2.13
2018-12-18T07:32:50.572Z,2.17
2018-12-18T07:33:50.478Z,2.13
2018-12-18T07:34:50.716Z,2.14
2018-12-18T07:35:50.657Z,2.14
2018-12-18T07:36:51.539Z,2.15
2018-12-18T07:37:50.600Z,2.14
2018-12-18T07:38:50.476Z,2.18
2018-12-18T07:39:50.452Z,2.18
2018-12-18T07:40:50.647Z,2.2
2018-12-18T07:41:50.623Z,2.18
2018-12-18T07:42:50.401Z,2.17
2018-12-18T07:43:50.479Z,2.2
2018-12-18T07:44:50.640Z,2.22
2018-12-18T07:45:50.474Z,2.2
2018-12-18T07:46:50.670Z,2.19
2018-12-18T07:47:50.593Z,2.23
2018-12-18T07:48:50.474Z,2.21
2018-12-18T07:49:50.420Z,2.17
2018-12-18T07:50:50.446Z,2.17
2018-12-18T07:51:50.535Z,2.18
2018-12-18T07:52:50.424Z,2.14
2018-12-18T07:53:50.504Z,2.11
2018-12-18T07:54:50.912Z,2.12
2018-12-18T07:55:50.577Z,2.12
2018-12-18T07:56:50.635Z,2.09
2018-12-18T07:57:50.426Z,2.09
2018-12-18T07:58:50.369Z,2.1
2018-12-18T07:59:50.389Z,2.16
2018-12-18T08:00:50.540Z,2.15
2018-12-18T08:01:50.402Z,2.15
2018-12-18T08:02:50.508Z,2.12
2018-12-18T08:03:50.582Z,2.14
2018-12-18T08:04:50.420Z,2.16
2018-12-18T08:05:50.397Z,2.18
2018-12-18T08:06:50.453Z,2.22
2018-12-18T08:07:50.407Z,2.21
2018-12-18T08:08:50.368Z,2.21
2018-12-18T08:09:50.522Z,2.24
2018-12-18T08:10:50.572Z,2.24
2018-12-18T08:11:50.421Z,2.26
2018-12-18T08:12:50.494Z,2.27
2018-12-18T08:13:50.788Z,2.27
2018-12-18T08:14:50.492Z,2.29
2018-12-18T08:15:51.252Z,2.3
2018-12-18T08:16:50.470Z,2.33
2018-12-18T08:17:50.582Z,2.34
2018-12-18T08:18:50.409Z,2.37
2018-12-18T08:19:50.526Z,2.36
2018-12-18T08:20:50.515Z,2.34
2018-12-18T08:21:50.592Z,2.36
2018-12-18T08:22:50.699Z,2.45
2018-12-18T08:23:50.637Z,2.46
2018-12-18T08:24:50.690Z,2.46
2018-12-18T08:25:50.397Z,2.49
2018-12-18T08:26:50.399Z,2.48
2018-12-18T08:27:50.335Z,2.52
2018-12-18T08:28:50.750Z,2.54
2018-12-18T08:29:50.529Z,2.51
2018-12-18T08:30:50.457Z,2.59
2018-12-18T08:31:50.602Z,2.59
2018-12-18T08:32:50.464Z,2.64
2018-12-18T08:33:50.609Z,2.67
2018-12-18T08:34:50.347Z,2.68
2018-12-18T08:35:50.409Z,2.67
2018-12-18T08:36:50.334Z,2.69
2018-12-18T08:37:50.375Z,2.71
2018-12-18T08:38:51.162Z,2.69
2018-12-18T08:39:50.724Z,2.7
2018-12-18T08:40:50.447Z,2.73
2018-12-18T08:41:50.559Z,2.75
2018-12-18T08:42:50.608Z,2.72
2018-12-18T08:43:50.489Z,2.75
2018-12-18T08:44:50.431Z,2.75
2018-12-18T08:45:50.413Z,2.78
2018-12-18T08:46:50.641Z,2.77
2018-12-18T08:47:50.469Z,2.81
2018-12-18T08:48:50.348Z,2.8
2018-12-18T08:49:50.422Z,2.79
2018-12-18T08:50:51.180Z,2.83
2018-12-18T08:51:50.560Z,2.86
2018-12-18T08:52:50.371Z,2.88
2018-12-18T08:53:51.167Z,2.89
2018-12-18T08:54:50.343Z,2.89
2018-12-18T08:55:50.350Z,2.88
2018-12-18T08:56:50.369Z,2.9
2018-12-18T08:57:50.530Z,2.9
2018-12-18T08:58:50.535Z,2.92
2018-12-18T08:59:51.156Z,2.91
2018-12-18T09:00:50.418Z,2.96
2018-12-18T09:01:50.320Z,2.92
2018-12-18T09:02:50.513Z,2.95
2018-12-18T09:03:50.554Z,2.94
2018-12-18T09:04:50.338Z,2.96
2018-12-18T09:05:50.350Z,2.97
2018-12-18T09:06:50.362Z,2.93
2018-12-18T09:07:50.636Z,2.95
2018-12-18T09:08:50.588Z,2.89
2018-12-18T09:09:50.406Z,2.91
2018-12-18T09:10:50.261Z,2.92
2018-12-18T09:11:50.646Z,2.94
2018-12-18T09:12:50.548Z,2.94
2018-12-18T09:13:50.368Z,2.93
2018-12-18T09:14:50.283Z,2.93
2018-12-18T09:15:50.264Z,2.93
2018-12-18T09:16:50.509Z,2.96
2018-12-18T09:17:50.476Z,2.94
2018-12-18T09:18:50.272Z,2.96
2018-12-18T09:19:50.348Z,2.98
2018-12-18T09:20:50.284Z,2.98
2018-12-18T09:21:51.074Z,2.99
2018-12-18T09:22:50.493Z,2.97
2018-12-18T09:23:51.148Z,2.99
2018-12-18T09:24:50.871Z,3
2018-12-18T09:25:50.321Z,3.02
2018-12-18T09:26:50.734Z,3.02
2018-12-18T09:27:50.584Z,2.98
2018-12-18T09:28:50.340Z,2.94
2018-12-18T09:29:50.273Z,2.99
2018-12-18T09:30:50.277Z,2.98
2018-12-18T09:31:50.341Z,3
2018-12-18T09:32:50.290Z,3
2018-12-18T09:33:50.502Z,3.07
2018-12-18T09:34:50.391Z,3.09
2018-12-18T09:35:50.331Z,3.04
2018-12-18T09:36:50.258Z,3.02
2018-12-18T09:37:50.649Z,3.05
2018-12-18T09:38:50.377Z,3.04
2018-12-18T09:39:50.534Z,3.05
2018-12-18T09:40:50.363Z,3.05
2018-12-18T09:41:50.293Z,3.05
2018-12-18T09:42:50.273Z,3.05
2018-12-18T09:43:50.551Z,3.03
2018-12-18T09:44:50.287Z,3.05
2018-12-18T09:45:50.384Z,3
2018-12-18T09:46:51.245Z,2.95
2018-12-18T09:47:50.226Z,2.93
2018-12-18T09:48:50.286Z,2.93
2018-12-18T09:49:50.269Z,2.93
2018-12-18T09:50:50.363Z,2.95
2018-12-18T09:51:50.490Z,2.95
2018-12-18T09:52:50.347Z,2.95
2018-12-18T09:53:50.297Z,2.99
2018-12-18T09:54:50.318Z,3.01
2018-12-18T09:55:50.322Z,2.97
2018-12-18T09:56:50.336Z,2.99
2018-12-18T09:57:50.263Z,3.01
2018-12-18T09:58:50.333Z,2.95
2018-12-18T09:59:50.391Z,2.97
2018-12-18T10:00:50.535Z,3
2018-12-18T10:01:50.920Z,3.02
2018-12-18T10:02:50.808Z,3
2018-12-18T10:03:50.232Z,3.02
2018-12-18T10:04:50.363Z,3.04
2018-12-18T10:05:56.686Z,3.07
2018-12-18T10:06:50.587Z,3.1
2018-12-18T10:07:50.356Z,3.11
2018-12-18T10:08:50.529Z,3.06
2018-12-18T10:09:50.583Z,3.11
2018-12-18T10:10:50.325Z,3.09
2018-12-18T10:11:50.375Z,3.1
2018-12-18T10:12:50.230Z,3.11
2018-12-18T10:13:50.343Z,3.09
2018-12-18T10:14:50.533Z,3.07
2018-12-18T10:15:50.426Z,3.08
2018-12-18T10:16:50.287Z,3.16
2018-12-18T10:17:50.614Z,3.17
2018-12-18T10:18:50.761Z,3.17
2018-12-18T10:19:50.246Z,3.21
2018-12-18T10:20:50.254Z,3.21
2018-12-18T10:21:50.447Z,3.25
2018-12-18T10:22:50.342Z,3.3
2018-12-18T10:23:50.243Z,3.28
2018-12-18T10:24:50.299Z,3.26
2018-12-18T10:25:51.020Z,3.27
2018-12-18T10:26:50.501Z,3.26
2018-12-18T10:27:50.361Z,3.32
2018-12-18T10:28:50.435Z,3.32
2018-12-18T10:29:50.289Z,3.32
2018-12-18T10:30:50.255Z,3.38
2018-12-18T10:31:50.351Z,3.38
2018-12-18T10:32:50.290Z,3.37
2018-12-18T10:33:50.311Z,3.42
2018-12-18T10:34:50.201Z,3.47
2018-12-18T10:35:51.054Z,3.46
2018-12-18T10:36:50.205Z,3.47
2018-12-18T10:37:50.225Z,3.45
2018-12-18T10:38:50.267Z,3.47
2018-12-18T10:39:50.587Z,3.54
2018-12-18T10:40:50.405Z,3.49
2018-12-18T10:41:50.209Z,3.55
2018-12-18T10:42:50.226Z,3.57
2018-12-18T10:43:50.587Z,3.58
2018-12-18T10:44:50.219Z,3.57
2018-12-18T10:45:50.279Z,3.57
2018-12-18T10:46:50.217Z,3.62
2018-12-18T10:47:50.294Z,3.59
2018-12-18T10:48:50.673Z,3.62
2018-12-18T10:49:51.008Z,3.62
2018-12-18T10:50:50.430Z,3.68
2018-12-18T10:51:50.286Z,3.68
2018-12-18T10:52:51.022Z,3.67
2018-12-18T10:53:50.276Z,3.71
2018-12-18T10:54:50.341Z,3.72
2018-12-18T10:55:50.189Z,3.72
2018-12-18T10:56:50.167Z,3.8
2018-12-18T10:57:50.215Z,3.67
2018-12-18T10:58:50.751Z,3.79
2018-12-18T10:59:50.511Z,3.77
2018-12-18T11:00:50.202Z,3.85
2018-12-18T11:01:51.011Z,3.78
2018-12-18T11:02:50.518Z,3.85
2018-12-18T11:03:50.450Z,3.87
2018-12-18T11:04:50.158Z,3.8
2018-12-18T11:05:50.283Z,3.7
2018-12-18T11:06:50.274Z,3.81
2018-12-18T11:07:50.246Z,3.82
2018-12-18T11:08:50.246Z,3.86
2018-12-18T11:09:50.149Z,3.93
2018-12-18T11:10:50.226Z,4.04
2018-12-18T11:11:50.194Z,3.99
2018-12-18T11:12:50.192Z,3.91
2018-12-18T11:13:50.137Z,3.99
2018-12-18T11:14:50.215Z,3.83
2018-12-18T11:15:50.208Z,3.84
2018-12-18T11:16:50.264Z,3.81
2018-12-18T11:17:50.196Z,3.97
2018-12-18T11:18:50.141Z,4.01
2018-12-18T11:19:50.165Z,4.06
2018-12-18T11:20:50.161Z,3.93
2018-12-18T11:21:50.147Z,4.1
2018-12-18T11:22:50.153Z,4.06
2018-12-18T11:23:50.349Z,4.17
2018-12-18T11:24:50.188Z,4.1
2018-12-18T11:25:50.433Z,4.07
2018-12-18T11:26:50.394Z,4.14
2018-12-18T11:27:50.266Z,4.15
2018-12-18T11:28:50.555Z,4.1
2018-12-18T11:29:50.380Z,4.09
2018-12-18T11:30:50.248Z,4.07
2018-12-18T11:31:50.371Z,4.14
2018-12-18T11:32:50.639Z,3.99
2018-12-18T11:33:50.447Z,4.02
2018-12-18T11:34:50.228Z,4.09
2018-12-18T11:35:50.283Z,4
2018-12-18T11:36:50.329Z,4.04
2018-12-18T11:37:50.953Z,4.09
2018-12-18T11:38:50.474Z,4.18
2018-12-18T11:39:50.264Z,4.07
2018-12-18T11:40:50.600Z,4.15
2018-12-18T11:41:50.589Z,4.11
2018-12-18T11:42:50.206Z,4.03
2018-12-18T11:43:50.148Z,4.06
2018-12-18T11:44:50.158Z,3.96
2018-12-18T11:45:50.161Z,4.05
2018-12-18T11:46:50.383Z,4.23
2018-12-18T11:47:50.526Z,4.15
2018-12-18T11:48:50.705Z,4.04
2018-12-18T11:49:50.239Z,4.05
2018-12-18T11:50:50.173Z,4.18
2018-12-18T11:51:50.345Z,4.19
2018-12-18T11:52:50.464Z,4.3
2018-12-18T11:53:50.217Z,4.19
2018-12-18T11:54:53.434Z,4.03
2018-12-18T11:55:50.109Z,4.11
2018-12-18T11:56:50.170Z,4.19
2018-12-18T11:57:50.502Z,4.09
2018-12-18T11:58:50.372Z,3.98
2018-12-18T11:59:50.158Z,4.03
2018-12-18T12:00:50.179Z,4.17
2018-12-18T12:01:50.086Z,4.07
2018-12-18T12:02:50.163Z,4.14
2018-12-18T12:03:50.338Z,4.03
2018-12-18T12:04:50.103Z,4.05
2018-12-18T12:05:50.236Z,4.07
2018-12-18T12:06:50.349Z,3.99
2018-12-18T12:07:50.114Z,4.02
2018-12-18T12:08:50.460Z,4
2018-12-18T12:09:50.243Z,4.01
2018-12-18T12:10:50.183Z,3.97
2018-12-18T12:11:50.177Z,4.03
2018-12-18T12:12:50.409Z,4
2018-12-18T12:13:50.165Z,4.03
2018-12-18T12:14:50.142Z,4.12
2018-12-18T12:15:50.151Z,4.08
2018-12-18T12:16:50.160Z,4.05
2018-12-18T12:17:50.175Z,4
2018-12-18T12:18:50.510Z,4
2018-12-18T12:19:50.631Z,4.02
2018-12-18T12:20:50.429Z,3.97
2018-12-18T12:21:50.146Z,3.95
2018-12-18T12:22:50.436Z,3.95
2018-12-18T12:23:50.199Z,3.96
2018-12-18T12:24:50.355Z,3.99
2018-12-18T12:25:50.214Z,3.92
2018-12-18T12:26:50.132Z,3.99
2018-12-18T12:27:50.242Z,4.05
2018-12-18T12:28:50.056Z,3.97
2018-12-18T12:29:50.767Z,3.93
2018-12-18T12:30:50.258Z,3.95
2018-12-18T12:31:50.088Z,3.94
2018-12-18T12:32:50.571Z,3.9
2018-12-18T12:33:50.418Z,3.91
2018-12-18T12:34:50.199Z,3.89
2018-12-18T12:35:50.845Z,3.87
2018-12-18T12:36:50.476Z,3.86
2018-12-18T12:37:50.299Z,3.84
2018-12-18T12:38:50.271Z,3.9
2018-12-18T12:39:50.122Z,3.92
2018-12-18T12:40:50.162Z,3.94
2018-12-18T12:41:50.222Z,3.87
2018-12-18T12:42:50.295Z,3.92
2018-12-18T12:43:50.044Z,3.91
2018-12-18T12:44:50.592Z,3.83
2018-12-18T12:45:50.316Z,3.85
2018-12-18T12:46:50.281Z,3.81
2018-12-18T12:47:50.380Z,3.83
2018-12-18T12:48:50.063Z,3.85
2018-12-18T12:49:50.398Z,3.86
2018-12-18T12:50:50.185Z,3.84
2018-12-18T12:51:50.040Z,3.89
2018-12-18T12:52:50.379Z,3.88
2018-12-18T12:53:50.191Z,3.78
2018-12-18T12:54:50.258Z,3.84
2018-12-18T12:55:50.265Z,3.94
2018-12-18T12:56:50.239Z,3.98
2018-12-18T12:57:50.082Z,3.98
2018-12-18T12:58:50.084Z,3.98
2018-12-18T12:59:50.280Z,3.91
2018-12-18T13:00:50.066Z,3.91
2018-12-18T13:01:50.108Z,3.95
2018-12-18T13:02:50.101Z,4.03
2018-12-18T13:03:50.293Z,4.09
2018-12-18T13:04:50.183Z,4.11
2018-12-18T13:05:50.123Z,4.15
2018-12-18T13:06:50.056Z,4.13
2018-12-18T13:07:50.371Z,4.14
2018-12-18T13:08:50.051Z,4.15
2018-12-18T13:09:50.047Z,4.26
2018-12-18T13:10:50.397Z,4.32
2018-12-18T13:11:50.199Z,4.2
2018-12-18T13:12:50.123Z,4.2
2018-12-18T13:13:50.285Z,4.02
2018-12-18T13:14:50.358Z,4.08
2018-12-18T13:15:50.855Z,4.19
2018-12-18T13:16:50.280Z,4.15
2018-12-18T13:17:50.086Z,4.14
2018-12-18T13:18:50.072Z,4.12
2018-12-18T13:19:50.047Z,4.16
2018-12-18T13:20:50.091Z,4.22
2018-12-18T13:21:50.062Z,4.18
2018-12-18T13:22:50.010Z,4.18